sensor_id;sensor_type;location;lat;lon;timestamp;pressure;altitude;pressure_sealevel;temperature;humidity
75646;BME280;64237;52.438;13.240;2022-12-08T00:01:22;100475.69;;;0.79;87.47
75646;BME280;64237;52.438;13.240;2022-12-08T00:03:49;100465.16;;;0.76;87.29
75646;BME280;64237;52.438;13.240;2022-12-08T00:06:35;100469.03;;;0.81;87.43
75646;BME280;64237;52.438;13.240;2022-12-08T00:09:28;100473.34;;;0.90;87.38
75646;BME280;64237;52.438;13.240;2022-12-08T00:12:02;100467.81;;;0.84;87.58
75646;BME280;64237;52.438;13.240;2022-12-08T00:14:37;100475.50;;;0.95;87.44
75646;BME280;64237;52.438;13.240;2022-12-08T00:17:03;100480.19;;;1.01;87.34
75646;BME280;64237;52.438;13.240;2022-12-08T00:19:29;100465.63;;;0.94;87.12
75646;BME280;64237;52.438;13.240;2022-12-08T00:21:55;100459.91;;;0.89;86.84
75646;BME280;64237;52.438;13.240;2022-12-08T00:24:28;100467.31;;;0.95;86.44
75646;BME280;64237;52.438;13.240;2022-12-08T00:26:54;100457.09;;;0.97;87.04
75646;BME280;64237;52.438;13.240;2022-12-08T00:29:19;100457.47;;;0.94;87.48
75646;BME280;64237;52.438;13.240;2022-12-08T00:31:45;100457.66;;;0.78;87.19
75646;BME280;64237;52.438;13.240;2022-12-08T00:34:12;100452.22;;;0.78;88.08
75646;BME280;64237;52.438;13.240;2022-12-08T00:36:37;100448.66;;;0.77;87.93
75646;BME280;64237;52.438;13.240;2022-12-08T00:39:03;100444.72;;;0.80;87.71
75646;BME280;64237;52.438;13.240;2022-12-08T00:41:28;100445.75;;;0.79;87.62
75646;BME280;64237;52.438;13.240;2022-12-08T00:44:14;100440.59;;;0.84;87.18
75646;BME280;64237;52.438;13.240;2022-12-08T00:46:40;100448.00;;;0.75;88.36
75646;BME280;64237;52.438;13.240;2022-12-08T00:49:06;100447.31;;;0.73;87.58
75646;BME280;64237;52.438;13.240;2022-12-08T00:51:32;100439.63;;;0.77;87.48
75646;BME280;64237;52.438;13.240;2022-12-08T00:54:01;100448.00;;;0.75;87.60
75646;BME280;64237;52.438;13.240;2022-12-08T00:56:26;100440.75;;;0.67;87.67
75646;BME280;64237;52.438;13.240;2022-12-08T00:58:52;100439.63;;;0.77;88.23
75646;BME280;64237;52.438;13.240;2022-12-08T01:01:17;100442.66;;;0.82;88.21
75646;BME280;64237;52.438;13.240;2022-12-08T01:03:43;100444.22;;;0.91;88.03
75646;BME280;64237;52.438;13.240;2022-12-08T01:06:08;100436.91;;;0.91;87.56
75646;BME280;64237;52.438;13.240;2022-12-08T01:08:37;100439.91;;;0.96;86.89
75646;BME280;64237;52.438;13.240;2022-12-08T01:11:08;100442.06;;;1.01;87.01
75646;BME280;64237;52.438;13.240;2022-12-08T01:13:34;100435.88;;;1.07;87.38
75646;BME280;64237;52.438;13.240;2022-12-08T01:15:59;100426.28;;;1.11;87.87
75646;BME280;64237;52.438;13.240;2022-12-08T01:18:26;100435.31;;;0.97;87.19
75646;BME280;64237;52.438;13.240;2022-12-08T01:20:51;100438.03;;;0.97;88.38
75646;BME280;64237;52.438;13.240;2022-12-08T01:23:17;100431.19;;;1.01;88.20
75646;BME280;64237;52.438;13.240;2022-12-08T01:25:42;100426.56;;;0.87;87.92
75646;BME280;64237;52.438;13.240;2022-12-08T01:28:07;100427.81;;;0.99;87.94
75646;BME280;64237;52.438;13.240;2022-12-08T01:30:33;100423.28;;;1.06;88.13
75646;BME280;64237;52.438;13.240;2022-12-08T01:32:58;100418.28;;;1.10;87.86
75646;BME280;64237;52.438;13.240;2022-12-08T01:35:24;100412.41;;;1.06;87.58
75646;BME280;64237;52.438;13.240;2022-12-08T01:37:49;100417.84;;;1.06;88.40
75646;BME280;64237;52.438;13.240;2022-12-08T01:40:15;100406.00;;;0.99;88.47
75646;BME280;64237;52.438;13.240;2022-12-08T01:42:40;100408.25;;;1.10;88.68
75646;BME280;64237;52.438;13.240;2022-12-08T01:45:13;100405.63;;;1.02;87.75
75646;BME280;64237;52.438;13.240;2022-12-08T01:47:46;100401.50;;;1.06;88.51
75646;BME280;64237;52.438;13.240;2022-12-08T01:50:15;100394.81;;;1.09;88.29
75646;BME280;64237;52.438;13.240;2022-12-08T01:53:13;100393.16;;;1.08;88.36
75646;BME280;64237;52.438;13.240;2022-12-08T01:55:47;100394.75;;;1.02;88.85
75646;BME280;64237;52.438;13.240;2022-12-08T01:58:31;100386.53;;;1.17;88.48
75646;BME280;64237;52.438;13.240;2022-12-08T02:00:59;100387.22;;;1.04;88.56
75646;BME280;64237;52.438;13.240;2022-12-08T02:03:33;100382.69;;;1.11;88.60
75646;BME280;64237;52.438;13.240;2022-12-08T02:06:02;100380.25;;;1.16;88.26
75646;BME280;64237;52.438;13.240;2022-12-08T02:08:28;100384.47;;;1.19;88.46
75646;BME280;64237;52.438;13.240;2022-12-08T02:10:54;100376.22;;;1.12;88.51
75646;BME280;64237;52.438;13.240;2022-12-08T02:13:21;100374.41;;;1.19;88.92
75646;BME280;64237;52.438;13.240;2022-12-08T02:18:52;100369.72;;;1.28;89.02
75646;BME280;64237;52.438;13.240;2022-12-08T02:21:38;100362.22;;;1.15;88.42
75646;BME280;64237;52.438;13.240;2022-12-08T02:40:58;100355.81;;;1.23;88.76
75646;BME280;64237;52.438;13.240;2022-12-08T02:43:40;100350.44;;;1.29;88.90
75646;BME280;64237;52.438;13.240;2022-12-08T02:46:16;100346.16;;;1.20;88.50
75646;BME280;64237;52.438;13.240;2022-12-08T02:48:45;100336.38;;;1.26;88.83
75646;BME280;64237;52.438;13.240;2022-12-08T02:51:11;100333.44;;;1.27;89.30
75646;BME280;64237;52.438;13.240;2022-12-08T02:53:37;100330.53;;;1.29;88.70
75646;BME280;64237;52.438;13.240;2022-12-08T03:02:04;100320.06;;;1.32;88.57
75646;BME280;64237;52.438;13.240;2022-12-08T03:04:44;100317.53;;;1.31;88.25
75646;BME280;64237;52.438;13.240;2022-12-08T03:07:22;100314.75;;;1.24;88.75
75646;BME280;64237;52.438;13.240;2022-12-08T03:10:03;100318.38;;;1.31;88.72
75646;BME280;64237;52.438;13.240;2022-12-08T03:12:42;100315.34;;;1.20;89.32
75646;BME280;64237;52.438;13.240;2022-12-08T03:15:13;100310.72;;;1.20;89.16
75646;BME280;64237;52.438;13.240;2022-12-08T03:17:44;100305.78;;;1.30;88.71
75646;BME280;64237;52.438;13.240;2022-12-08T03:20:13;100304.56;;;1.33;88.78
75646;BME280;64237;52.438;13.240;2022-12-08T03:22:43;100299.84;;;1.20;88.02
75646;BME280;64237;52.438;13.240;2022-12-08T03:25:12;100300.97;;;1.11;89.04
75646;BME280;64237;52.438;13.240;2022-12-08T03:27:38;100288.94;;;1.20;88.93
75646;BME280;64237;52.438;13.240;2022-12-08T03:30:05;100294.38;;;1.20;88.29
75646;BME280;64237;52.438;13.240;2022-12-08T03:32:42;100297.00;;;1.28;89.41
75646;BME280;64237;52.438;13.240;2022-12-08T03:35:16;100293.16;;;1.23;88.97
75646;BME280;64237;52.438;13.240;2022-12-08T03:37:43;100293.09;;;1.16;89.52
75646;BME280;64237;52.438;13.240;2022-12-08T03:40:12;100283.50;;;1.20;88.77
75646;BME280;64237;52.438;13.240;2022-12-08T03:42:38;100288.56;;;1.23;88.97
75646;BME280;64237;52.438;13.240;2022-12-08T03:45:04;100284.16;;;1.22;89.30
75646;BME280;64237;52.438;13.240;2022-12-08T03:47:30;100284.25;;;1.14;89.67
75646;BME280;64237;52.438;13.240;2022-12-08T03:49:56;100272.91;;;1.11;89.07
75646;BME280;64237;52.438;13.240;2022-12-08T03:52:21;100274.00;;;1.16;89.27
75646;BME280;64237;52.438;13.240;2022-12-08T03:54:47;100274.28;;;1.21;89.22
75646;BME280;64237;52.438;13.240;2022-12-08T03:57:13;100273.09;;;1.30;89.17
75646;BME280;64237;52.438;13.240;2022-12-08T03:59:39;100264.50;;;1.27;88.52
75646;BME280;64237;52.438;13.240;2022-12-08T04:02:04;100259.94;;;1.34;89.38
75646;BME280;64237;52.438;13.240;2022-12-08T04:04:30;100262.63;;;1.27;88.77
75646;BME280;64237;52.438;13.240;2022-12-08T04:06:57;100253.00;;;1.31;88.82
75646;BME280;64237;52.438;13.240;2022-12-08T04:09:23;100253.53;;;1.20;88.56
75646;BME280;64237;52.438;13.240;2022-12-08T04:11:48;100243.28;;;1.22;89.04
75646;BME280;64237;52.438;13.240;2022-12-08T04:14:15;100247.53;;;1.31;89.39
75646;BME280;64237;52.438;13.240;2022-12-08T04:16:40;100244.19;;;1.29;88.88
75646;BME280;64237;52.438;13.240;2022-12-08T04:19:06;100243.13;;;1.30;88.72
75646;BME280;64237;52.438;13.240;2022-12-08T04:21:33;100235.41;;;1.34;89.44
75646;BME280;64237;52.438;13.240;2022-12-08T04:23:58;100235.75;;;1.24;88.35
75646;BME280;64237;52.438;13.240;2022-12-08T04:26:24;100235.75;;;1.24;89.21
75646;BME280;64237;52.438;13.240;2022-12-08T04:28:50;100237.56;;;1.17;88.79
75646;BME280;64237;52.438;13.240;2022-12-08T04:31:16;100237.84;;;1.22;89.28
75646;BME280;64237;52.438;13.240;2022-12-08T04:33:41;100221.50;;;1.22;89.58
75646;BME280;64237;52.438;13.240;2022-12-08T04:36:08;100233.69;;;1.26;89.08
75646;BME280;64237;52.438;13.240;2022-12-08T04:38:34;100239.38;;;1.31;89.69
75646;BME280;64237;52.438;13.240;2022-12-08T04:41:00;100244.19;;;1.29;89.58
75646;BME280;64237;52.438;13.240;2022-12-08T04:43:25;100231.41;;;1.30;89.65
75646;BME280;64237;52.438;13.240;2022-12-08T04:45:51;100232.19;;;1.24;89.55
75646;BME280;64237;52.438;13.240;2022-12-08T04:48:17;100227.19;;;1.27;89.78
75646;BME280;64237;52.438;13.240;2022-12-08T04:50:43;100226.78;;;1.30;89.90
75646;BME280;64237;52.438;13.240;2022-12-08T04:53:09;100235.38;;;1.27;89.72
75646;BME280;64237;52.438;13.240;2022-12-08T04:55:38;100219.81;;;1.21;89.64
75646;BME280;64237;52.438;13.240;2022-12-08T04:58:05;100230.16;;;1.32;89.47
75646;BME280;64237;52.438;13.240;2022-12-08T05:00:32;100225.41;;;1.41;89.71
75646;BME280;64237;52.438;13.240;2022-12-08T05:02:58;100222.09;;;1.46;89.57
75646;BME280;64237;52.438;13.240;2022-12-08T05:05:23;100222.88;;;1.40;89.89
75646;BME280;64237;52.438;13.240;2022-12-08T05:07:48;100202.91;;;1.32;89.94
75646;BME280;64237;52.438;13.240;2022-12-08T05:10:14;100215.34;;;1.42;89.77
75646;BME280;64237;52.438;13.240;2022-12-08T05:12:39;100219.78;;;1.43;89.96
75646;BME280;64237;52.438;13.240;2022-12-08T05:15:05;100201.88;;;1.33;89.85
75646;BME280;64237;52.438;13.240;2022-12-08T05:17:31;100212.78;;;1.33;90.46
75646;BME280;64237;52.438;13.240;2022-12-08T05:19:56;100207.56;;;1.38;90.66
75646;BME280;64237;52.438;13.240;2022-12-08T05:22:21;100210.69;;;1.35;90.13
75646;BME280;64237;52.438;13.240;2022-12-08T05:24:47;100203.81;;;1.40;89.61
75646;BME280;64237;52.438;13.240;2022-12-08T05:27:12;100192.66;;;1.34;89.73
75646;BME280;64237;52.438;13.240;2022-12-08T05:29:37;100209.06;;;1.41;90.56
75646;BME280;64237;52.438;13.240;2022-12-08T05:32:03;100192.28;;;1.37;90.69
75646;BME280;64237;52.438;13.240;2022-12-08T05:34:28;100209.91;;;1.42;90.12
75646;BME280;64237;52.438;13.240;2022-12-08T05:36:54;100210.69;;;1.35;90.32
75646;BME280;64237;52.438;13.240;2022-12-08T05:39:19;100198.50;;;1.31;90.36
75646;BME280;64237;52.438;13.240;2022-12-08T05:41:44;100207.19;;;1.42;90.86
75646;BME280;64237;52.438;13.240;2022-12-08T05:44:10;100199.00;;;1.42;90.63
75646;BME280;64237;52.438;13.240;2022-12-08T05:46:35;100197.72;;;1.37;90.09
75646;BME280;64237;52.438;13.240;2022-12-08T05:49:01;100205.38;;;1.49;90.20
75646;BME280;64237;52.438;13.240;2022-12-08T05:51:27;100203.69;;;1.48;90.58
75646;BME280;64237;52.438;13.240;2022-12-08T05:53:53;100212.06;;;1.46;90.16
75646;BME280;64237;52.438;13.240;2022-12-08T05:56:19;100199.16;;;1.61;89.95
75646;BME280;64237;52.438;13.240;2022-12-08T05:58:45;100201.44;;;1.58;90.53
75646;BME280;64237;52.438;13.240;2022-12-08T06:01:25;100198.31;;;1.61;90.24
75646;BME280;64237;52.438;13.240;2022-12-08T06:03:52;100199.22;;;1.68;89.50
75646;BME280;64237;52.438;13.240;2022-12-08T06:06:18;100191.81;;;1.62;90.34
75646;BME280;64237;52.438;13.240;2022-12-08T06:08:44;100196.19;;;1.56;89.99
75646;BME280;64237;52.438;13.240;2022-12-08T06:11:09;100201.81;;;1.55;90.12
75646;BME280;64237;52.438;13.240;2022-12-08T06:13:41;100201.69;;;1.63;89.97
75646;BME280;64237;52.438;13.240;2022-12-08T06:16:06;100205.44;;;1.62;89.45
75646;BME280;64237;52.438;13.240;2022-12-08T06:18:32;100188.41;;;1.53;90.33
75646;BME280;64237;52.438;13.240;2022-12-08T06:21:03;100198.06;;;1.56;90.61
75646;BME280;64237;52.438;13.240;2022-12-08T06:23:28;100189.44;;;1.52;90.50
75646;BME280;64237;52.438;13.240;2022-12-08T06:25:59;100190.28;;;1.53;89.77
75646;BME280;64237;52.438;13.240;2022-12-08T06:28:24;100195.25;;;1.43;90.72
75646;BME280;64237;52.438;13.240;2022-12-08T06:30:49;100194.59;;;1.41;91.02
75646;BME280;64237;52.438;13.240;2022-12-08T06:33:15;100200.44;;;1.37;89.95
75646;BME280;64237;52.438;13.240;2022-12-08T06:35:40;100187.59;;;1.31;90.59
75646;BME280;64237;52.438;13.240;2022-12-08T06:38:05;100191.47;;;1.44;90.42
75646;BME280;64237;52.438;13.240;2022-12-08T06:40:30;100193.81;;;1.47;90.63
75646;BME280;64237;52.438;13.240;2022-12-08T06:42:56;100199.91;;;1.49;90.46
75646;BME280;64237;52.438;13.240;2022-12-08T06:45:22;100191.47;;;1.44;90.23
75646;BME280;64237;52.438;13.240;2022-12-08T06:47:47;100195.25;;;1.43;90.83
75646;BME280;64237;52.438;13.240;2022-12-08T06:50:13;100200.31;;;1.46;90.70
75646;BME280;64237;52.438;13.240;2022-12-08T06:52:38;100201.59;;;1.50;90.73
75646;BME280;64237;52.438;13.240;2022-12-08T06:55:06;100197.41;;;1.54;90.54
75646;BME280;64237;52.438;13.240;2022-12-08T06:57:31;100206.28;;;1.62;90.50
75646;BME280;64237;52.438;13.240;2022-12-08T06:59:57;100211.34;;;1.65;90.21
75646;BME280;64237;52.438;13.240;2022-12-08T07:02:22;100207.97;;;1.63;90.23
75646;BME280;64237;52.438;13.240;2022-12-08T07:04:47;100213.72;;;1.75;90.45
75646;BME280;64237;52.438;13.240;2022-12-08T07:07:13;100215.66;;;1.81;90.49
75646;BME280;64237;52.438;13.240;2022-12-08T07:09:38;100225.72;;;1.81;90.42
75646;BME280;64237;52.438;13.240;2022-12-08T07:12:04;100221.16;;;1.88;90.18
75646;BME280;64237;52.438;13.240;2022-12-08T07:14:29;100220.13;;;4.09;94.81
75646;BME280;64237;52.438;13.240;2022-12-08T07:16:55;100220.88;;;4.88;80.26
75646;BME280;64237;52.438;13.240;2022-12-08T07:19:20;100218.25;;;3.97;81.16
75646;BME280;64237;52.438;13.240;2022-12-08T07:21:46;100219.16;;;3.25;83.73
75646;BME280;64237;52.438;13.240;2022-12-08T07:24:12;100230.00;;;2.79;85.31
75646;BME280;64237;52.438;13.240;2022-12-08T07:26:37;100225.31;;;2.59;87.13
75646;BME280;64237;52.438;13.240;2022-12-08T07:29:04;100222.75;;;2.51;86.67
75646;BME280;64237;52.438;13.240;2022-12-08T07:31:29;100217.84;;;2.40;87.39
75646;BME280;64237;52.438;13.240;2022-12-08T07:33:56;100215.56;;;2.37;88.50
75646;BME280;64237;52.438;13.240;2022-12-08T07:36:22;100213.38;;;2.26;88.55
75646;BME280;64237;52.438;13.240;2022-12-08T07:38:48;100210.00;;;2.24;88.85
75646;BME280;64237;52.438;13.240;2022-12-08T07:41:17;100207.44;;;2.09;89.28
75646;BME280;64237;52.438;13.240;2022-12-08T07:43:43;100218.34;;;2.09;89.44
75646;BME280;64237;52.438;13.240;2022-12-08T07:46:17;100210.75;;;2.04;89.49
75646;BME280;64237;52.438;13.240;2022-12-08T07:48:43;100216.72;;;2.15;89.71
75646;BME280;64237;52.438;13.240;2022-12-08T07:51:10;100212.94;;;2.16;89.50
75646;BME280;64237;52.438;13.240;2022-12-08T07:53:41;100212.53;;;2.25;89.73
75646;BME280;64237;52.438;13.240;2022-12-08T07:56:08;100218.41;;;2.22;89.18
75646;BME280;64237;52.438;13.240;2022-12-08T07:58:34;100213.78;;;2.23;89.90
75646;BME280;64237;52.438;13.240;2022-12-08T08:01:00;100214.00;;;2.21;89.79
75646;BME280;64237;52.438;13.240;2022-12-08T08:03:26;100219.84;;;2.18;89.27
75646;BME280;64237;52.438;13.240;2022-12-08T08:05:51;100212.09;;;2.22;89.35
75646;BME280;64237;52.438;13.240;2022-12-08T08:08:17;100221.41;;;2.34;89.75
75646;BME280;64237;52.438;13.240;2022-12-08T08:10:43;100221.00;;;2.37;89.20
75646;BME280;64237;52.438;13.240;2022-12-08T08:13:11;100224.78;;;2.36;89.24
75646;BME280;64237;52.438;13.240;2022-12-08T08:15:37;100230.25;;;2.36;89.67
75646;BME280;64237;52.438;13.240;2022-12-08T08:18:02;100233.16;;;2.34;89.77
75646;BME280;64237;52.438;13.240;2022-12-08T08:20:28;100231.69;;;2.32;89.47
75646;BME280;64237;52.438;13.240;2022-12-08T08:22:53;100227.03;;;2.26;89.07
75646;BME280;64237;52.438;13.240;2022-12-08T08:25:20;100227.44;;;2.23;90.07
75646;BME280;64237;52.438;13.240;2022-12-08T08:27:49;100226.63;;;2.29;89.08
75646;BME280;64237;52.438;13.240;2022-12-08T08:30:15;100217.25;;;2.38;89.55
75646;BME280;64237;52.438;13.240;2022-12-08T08:32:41;100216.16;;;2.39;88.69
75646;BME280;64237;52.438;13.240;2022-12-08T08:35:07;100229.47;;;2.55;89.62
75646;BME280;64237;52.438;13.240;2022-12-08T08:37:33;100218.56;;;2.55;88.69
75646;BME280;64237;52.438;13.240;2022-12-08T08:39:58;100220.25;;;2.56;88.79
75646;BME280;64237;52.438;13.240;2022-12-08T08:42:24;100221.47;;;2.47;88.65
75646;BME280;64237;52.438;13.240;2022-12-08T08:44:49;100224.03;;;2.55;89.12
75646;BME280;64237;52.438;13.240;2022-12-08T08:47:17;100219.19;;;2.64;90.12
75646;BME280;64237;52.438;13.240;2022-12-08T08:49:43;100222.97;;;2.63;89.84
75646;BME280;64237;52.438;13.240;2022-12-08T08:52:08;100230.75;;;2.59;89.45
75646;BME280;64237;52.438;13.240;2022-12-08T08:54:34;100225.31;;;2.66;89.64
75646;BME280;64237;52.438;13.240;2022-12-08T08:57:00;100229.09;;;2.58;88.37
75646;BME280;64237;52.438;13.240;2022-12-08T08:59:26;100219.41;;;2.62;88.94
75646;BME280;64237;52.438;13.240;2022-12-08T09:01:52;100209.47;;;3.49;93.09
75646;BME280;64237;52.438;13.240;2022-12-08T09:04:19;100208.22;;;5.99;92.82
75646;BME280;64237;52.438;13.240;2022-12-08T09:06:44;100206.38;;;5.12;79.98
75646;BME280;64237;52.438;13.240;2022-12-08T09:09:10;100210.94;;;4.48;80.93
75646;BME280;64237;52.438;13.240;2022-12-08T09:11:36;100209.00;;;3.98;83.37
75646;BME280;64237;52.438;13.240;2022-12-08T09:14:02;100212.41;;;3.67;84.81
75646;BME280;64237;52.438;13.240;2022-12-08T09:16:27;100212.81;;;3.51;85.25
75646;BME280;64237;52.438;13.240;2022-12-08T09:18:53;100206.09;;;3.33;87.81
75646;BME280;64237;52.438;13.240;2022-12-08T09:21:22;100218.09;;;3.39;86.34
75646;BME280;64237;52.438;13.240;2022-12-08T09:23:49;100204.63;;;3.37;87.42
75646;BME280;64237;52.438;13.240;2022-12-08T09:26:15;100206.50;;;3.30;87.98
75646;BME280;64237;52.438;13.240;2022-12-08T09:28:40;100202.97;;;3.23;87.56
75646;BME280;64237;52.438;13.240;2022-12-08T09:31:12;100206.09;;;3.20;88.13
75646;BME280;64237;52.438;13.240;2022-12-08T09:33:38;100197.69;;;3.15;88.29
75646;BME280;64237;52.438;13.240;2022-12-08T09:36:04;100198.97;;;3.19;88.00
75646;BME280;64237;52.438;13.240;2022-12-08T09:38:29;100196.44;;;3.24;87.51
75646;BME280;64237;52.438;13.240;2022-12-08T09:40:56;100196.44;;;3.24;87.39
75646;BME280;64237;52.438;13.240;2022-12-08T09:45:53;100191.59;;;3.33;87.82
75646;BME280;64237;52.438;13.240;2022-12-08T09:48:23;100193.91;;;3.42;88.03
75646;BME280;64237;52.438;13.240;2022-12-08T09:50:54;100184.66;;;3.37;87.86
75646;BME280;64237;52.438;13.240;2022-12-08T09:53:25;100182.13;;;3.29;87.84
75646;BME280;64237;52.438;13.240;2022-12-08T09:55:54;100182.56;;;3.32;87.70
75646;BME280;64237;52.438;13.240;2022-12-08T10:01:10;100177.69;;;3.48;88.67
75646;BME280;64237;52.438;13.240;2022-12-08T10:03:36;100179.78;;;4.43;91.56
75646;BME280;64237;52.438;13.240;2022-12-08T10:06:30;100188.94;;;4.68;84.05
75646;BME280;64237;52.438;13.240;2022-12-08T10:14:13;100181.03;;;3.89;86.59
75646;BME280;64237;52.438;13.240;2022-12-08T10:16:44;100179.59;;;3.60;86.83
75646;BME280;64237;52.438;13.240;2022-12-08T10:19:19;100170.56;;;3.60;87.59
75646;BME280;64237;52.438;13.240;2022-12-08T10:21:45;100180.44;;;3.48;88.63
75646;BME280;64237;52.438;13.240;2022-12-08T10:24:39;100178.34;;;3.50;88.88
75646;BME280;64237;52.438;13.240;2022-12-08T10:27:11;100166.34;;;3.51;88.37
75646;BME280;64237;52.438;13.240;2022-12-08T10:29:39;100167.19;;;3.51;88.20
75646;BME280;64237;52.438;13.240;2022-12-08T10:32:19;100167.41;;;3.56;87.67
75646;BME280;64237;52.438;13.240;2022-12-08T10:35:01;100163.19;;;3.67;88.62
75646;BME280;64237;52.438;13.240;2022-12-08T10:37:27;100167.78;;;3.73;87.96
75646;BME280;64237;52.438;13.240;2022-12-08T10:40:18;100165.69;;;3.75;87.79
75646;BME280;64237;52.438;13.240;2022-12-08T10:42:50;100155.59;;;3.69;88.38
75646;BME280;64237;52.438;13.240;2022-12-08T10:45:28;100168.22;;;3.70;87.08
75646;BME280;64237;52.438;13.240;2022-12-08T10:48:11;100154.16;;;3.33;88.03
75646;BME280;64237;52.438;13.240;2022-12-08T10:53:15;100159.44;;;3.41;89.40
75646;BME280;64237;52.438;13.240;2022-12-08T10:55:49;100154.38;;;3.38;87.96
75646;BME280;64237;52.438;13.240;2022-12-08T11:01:05;100144.50;;;3.31;88.01
75646;BME280;64237;52.438;13.240;2022-12-08T11:03:43;100154.38;;;3.38;88.74
75646;BME280;64237;52.438;13.240;2022-12-08T11:08:58;100148.69;;;3.47;89.28
75646;BME280;64237;52.438;13.240;2022-12-08T11:14:17;100137.97;;;3.45;88.55
75646;BME280;64237;52.438;13.240;2022-12-08T11:16:44;100139.25;;;3.42;89.64
75646;BME280;64237;52.438;13.240;2022-12-08T11:19:15;100140.47;;;3.47;89.40
75646;BME280;64237;52.438;13.240;2022-12-08T11:21:42;100124.53;;;3.43;89.48
75646;BME280;64237;52.438;13.240;2022-12-08T11:26:43;100122.00;;;3.29;88.38
75646;BME280;64237;52.438;13.240;2022-12-08T11:29:12;100123.69;;;3.43;89.06
75646;BME280;64237;52.438;13.240;2022-12-08T11:31:45;100115.47;;;3.36;88.91
75646;BME280;64237;52.438;13.240;2022-12-08T11:34:31;100126.63;;;3.41;88.19
75646;BME280;64237;52.438;13.240;2022-12-08T11:36:58;100116.56;;;3.22;89.78
75646;BME280;64237;52.438;13.240;2022-12-08T11:39:25;100120.75;;;3.25;89.75
75646;BME280;64237;52.438;13.240;2022-12-08T11:41:55;100128.72;;;3.26;89.45
75646;BME280;64237;52.438;13.240;2022-12-08T11:44:36;100110.84;;;3.37;90.17
75646;BME280;64237;52.438;13.240;2022-12-08T11:47:15;100127.25;;;3.37;89.72
75646;BME280;64237;52.438;13.240;2022-12-08T11:49:43;100132.09;;;3.35;88.62
75646;BME280;64237;52.438;13.240;2022-12-08T11:52:32;100137.56;;;3.41;88.64
75646;BME280;64237;52.438;13.240;2022-12-08T11:57:44;100134.59;;;3.50;90.08
75646;BME280;64237;52.438;13.240;2022-12-08T12:00:12;100125.75;;;3.48;90.49
75646;BME280;64237;52.438;13.240;2022-12-08T12:02:45;100138.56;;;3.47;89.47
75646;BME280;64237;52.438;13.240;2022-12-08T12:05:39;100131.25;;;3.34;88.82
75646;BME280;64237;52.438;13.240;2022-12-08T12:11:46;100127.03;;;3.38;88.49
75646;BME280;64237;52.438;13.240;2022-12-08T12:17:05;100124.94;;;3.34;89.46
75646;BME280;64237;52.438;13.240;2022-12-08T12:19:36;100130.63;;;3.46;89.84
75646;BME280;64237;52.438;13.240;2022-12-08T12:22:21;100132.91;;;3.49;88.90
75646;BME280;64237;52.438;13.240;2022-12-08T12:24:50;100130.84;;;3.44;89.85
75646;BME280;64237;52.438;13.240;2022-12-08T12:27:39;100135.84;;;3.47;89.67
75646;BME280;64237;52.438;13.240;2022-12-08T12:30:27;100139.22;;;3.49;88.79
75646;BME280;64237;52.438;13.240;2022-12-08T12:32:59;100133.97;;;3.48;89.68
75646;BME280;64237;52.438;13.240;2022-12-08T12:35:37;100136.91;;;3.53;88.01
75646;BME280;64237;52.438;13.240;2022-12-08T12:38:22;100136.47;;;3.56;90.00
75646;BME280;64237;52.438;13.240;2022-12-08T12:41:09;100121.88;;;6.92;93.72
75646;BME280;64237;52.438;13.240;2022-12-08T12:43:37;100106.38;;;9.16;78.49
75646;BME280;64237;52.438;13.240;2022-12-08T12:48:51;100116.66;;;5.87;76.77
75646;BME280;64237;52.438;13.240;2022-12-08T12:54:24;100118.28;;;4.39;83.98
75646;BME280;64237;52.438;13.240;2022-12-08T12:56:54;100120.16;;;3.94;85.47
75646;BME280;64237;52.438;13.240;2022-12-08T12:59:32;100119.41;;;3.73;87.70
75646;BME280;64237;52.438;13.240;2022-12-08T13:01:59;100120.03;;;3.69;87.38
75646;BME280;64237;52.438;13.240;2022-12-08T13:04:32;100121.31;;;3.66;87.63
75646;BME280;64237;52.438;13.240;2022-12-08T13:06:59;100121.13;;;3.55;88.99
75646;BME280;64237;52.438;13.240;2022-12-08T13:09:35;100115.66;;;3.61;88.76
75646;BME280;64237;52.438;13.240;2022-12-08T13:12:09;100118.59;;;3.53;89.28
75646;BME280;64237;52.438;13.240;2022-12-08T13:14:38;100112.91;;;3.55;89.33
75646;BME280;64237;52.438;13.240;2022-12-08T13:17:12;100118.19;;;3.50;89.59
75646;BME280;64237;52.438;13.240;2022-12-08T13:19:41;100121.53;;;3.52;89.09
75646;BME280;64237;52.438;13.240;2022-12-08T13:28:25;100116.91;;;3.59;89.23
75646;BME280;64237;52.438;13.240;2022-12-08T13:36:26;100119.44;;;3.54;90.07
75646;BME280;64237;52.438;13.240;2022-12-08T13:38:55;100116.06;;;3.58;90.39
75646;BME280;64237;52.438;13.240;2022-12-08T13:41:33;100113.50;;;3.70;90.04
75646;BME280;64237;52.438;13.240;2022-12-08T13:44:22;100109.97;;;3.50;89.40
75646;BME280;64237;52.438;13.240;2022-12-08T13:46:53;100124.28;;;4.23;87.20
75646;BME280;64237;52.438;13.240;2022-12-08T13:49:27;100114.94;;;4.37;87.55
75646;BME280;64237;52.438;13.240;2022-12-08T13:51:54;100121.81;;;4.08;87.28
75646;BME280;64237;52.438;13.240;2022-12-08T13:56:52;100122.16;;;3.60;89.19
75646;BME280;64237;52.438;13.240;2022-12-08T14:01:46;100117.34;;;3.56;90.17
75646;BME280;64237;52.438;13.240;2022-12-08T14:04:18;100121.97;;;3.62;89.95
75646;BME280;64237;52.438;13.240;2022-12-08T14:06:49;100127.63;;;3.60;89.36
75646;BME280;64237;52.438;13.240;2022-12-08T14:09:21;100136.72;;;3.34;89.12
75646;BME280;64237;52.438;13.240;2022-12-08T14:11:54;100136.91;;;3.33;89.35
75646;BME280;64237;52.438;13.240;2022-12-08T14:14:32;100139.25;;;3.16;89.71
75646;BME280;64237;52.438;13.240;2022-12-08T14:17:05;100141.97;;;3.16;89.71
75646;BME280;64237;52.438;13.240;2022-12-08T14:19:33;100145.13;;;3.06;89.17
75646;BME280;64237;52.438;13.240;2022-12-08T14:24:33;100151.66;;;2.99;90.38